sensor_id;sensor_type;location;lat;lon;timestamp;P1;durP1;ratioP1;P2;durP2;ratioP2
71626;SDS011;59475;52.464;13.590;2022-09-27T00:01:04;2.95;;;2.42;;
71626;SDS011;59475;52.464;13.590;2022-09-27T00:03:32;3.38;;;2.40;;
71626;SDS011;59475;52.464;13.590;2022-09-27T00:08:48;3.72;;;2.20;;
71626;SDS011;59475;52.464;13.590;2022-09-27T00:11:46;2.70;;;2.50;;
71626;SDS011;59475;52.464;13.590;2022-09-27T00:14:07;3.88;;;2.30;;
71626;SDS011;59475;52.464;13.590;2022-09-27T00:16:34;3.42;;;2.10;;
71626;SDS011;59475;52.464;13.590;2022-09-27T00:19:06;2.60;;;2.10;;
71626;SDS011;59475;52.464;13.590;2022-09-27T00:21:35;2.53;;;2.17;;
71626;SDS011;59475;52.464;13.590;2022-09-27T00:24:00;6.30;;;2.35;;
71626;SDS011;59475;52.464;13.590;2022-09-27T00:26:26;3.47;;;2.50;;
71626;SDS011;59475;52.464;13.590;2022-09-27T00:28:52;2.50;;;2.25;;
71626;SDS011;59475;52.464;13.590;2022-09-27T00:31:24;5.50;;;2.30;;
71626;SDS011;59475;52.464;13.590;2022-09-27T00:33:53;2.75;;;2.10;;
71626;SDS011;59475;52.464;13.590;2022-09-27T00:36:20;4.20;;;2.28;;
71626;SDS011;59475;52.464;13.590;2022-09-27T00:38:47;4.40;;;2.80;;
71626;SDS011;59475;52.464;13.590;2022-09-27T00:41:14;3.53;;;2.20;;
71626;SDS011;59475;52.464;13.590;2022-09-27T00:43:43;4.53;;;2.35;;
71626;SDS011;59475;52.464;13.590;2022-09-27T00:46:18;3.53;;;2.08;;
71626;SDS011;59475;52.464;13.590;2022-09-27T00:48:54;4.43;;;1.98;;
71626;SDS011;59475;52.464;13.590;2022-09-27T00:51:28;5.20;;;1.80;;
71626;SDS011;59475;52.464;13.590;2022-09-27T00:53:55;2.50;;;2.30;;
71626;SDS011;59475;52.464;13.590;2022-09-27T00:56:24;2.63;;;2.00;;
71626;SDS011;59475;52.464;13.590;2022-09-27T00:59:04;2.72;;;2.13;;
71626;SDS011;59475;52.464;13.590;2022-09-27T01:01:33;2.35;;;1.90;;
71626;SDS011;59475;52.464;13.590;2022-09-27T01:10:45;3.40;;;2.30;;
71626;SDS011;59475;52.464;13.590;2022-09-27T01:13:19;2.45;;;1.92;;
71626;SDS011;59475;52.464;13.590;2022-09-27T01:15:59;4.83;;;2.00;;
71626;SDS011;59475;52.464;13.590;2022-09-27T01:21:13;2.38;;;1.80;;
71626;SDS011;59475;52.464;13.590;2022-09-27T01:23:58;2.45;;;2.10;;
71626;SDS011;59475;52.464;13.590;2022-09-27T01:34:50;1.95;;;1.80;;
71626;SDS011;59475;52.464;13.590;2022-09-27T01:40:31;4.20;;;1.95;;
71626;SDS011;59475;52.464;13.590;2022-09-27T01:43:05;2.90;;;1.77;;
71626;SDS011;59475;52.464;13.590;2022-09-27T01:45:47;2.55;;;1.95;;
71626;SDS011;59475;52.464;13.590;2022-09-27T01:48:31;3.25;;;2.00;;
71626;SDS011;59475;52.464;13.590;2022-09-27T01:51:06;2.35;;;2.15;;
71626;SDS011;59475;52.464;13.590;2022-09-27T01:53:36;2.22;;;1.52;;
71626;SDS011;59475;52.464;13.590;2022-09-27T01:56:07;2.83;;;1.90;;
71626;SDS011;59475;52.464;13.590;2022-09-27T01:58:48;2.92;;;2.08;;
71626;SDS011;59475;52.464;13.590;2022-09-27T02:01:22;2.72;;;2.00;;
71626;SDS011;59475;52.464;13.590;2022-09-27T02:03:50;2.15;;;1.92;;
71626;SDS011;59475;52.464;13.590;2022-09-27T02:06:21;3.90;;;2.03;;
71626;SDS011;59475;52.464;13.590;2022-09-27T02:08:58;2.77;;;1.83;;
71626;SDS011;59475;52.464;13.590;2022-09-27T02:11:27;3.00;;;2.05;;
71626;SDS011;59475;52.464;13.590;2022-09-27T02:13:54;1.80;;;1.60;;
71626;SDS011;59475;52.464;13.590;2022-09-27T02:25:13;2.40;;;1.90;;
71626;SDS011;59475;52.464;13.590;2022-09-27T02:27:47;2.47;;;1.70;;
71626;SDS011;59475;52.464;13.590;2022-09-27T02:30:19;2.60;;;2.40;;
71626;SDS011;59475;52.464;13.590;2022-09-27T02:32:44;2.53;;;1.47;;
71626;SDS011;59475;52.464;13.590;2022-09-27T02:35:15;2.20;;;1.50;;
71626;SDS011;59475;52.464;13.590;2022-09-27T02:37:44;3.40;;;2.33;;
71626;SDS011;59475;52.464;13.590;2022-09-27T02:40:11;3.05;;;1.92;;
71626;SDS011;59475;52.464;13.590;2022-09-27T02:42:37;2.10;;;1.70;;
71626;SDS011;59475;52.464;13.590;2022-09-27T02:45:03;3.17;;;1.90;;
71626;SDS011;59475;52.464;13.590;2022-09-27T02:47:52;4.65;;;1.60;;
71626;SDS011;59475;52.464;13.590;2022-09-27T02:50:35;2.80;;;1.77;;
71626;SDS011;59475;52.464;13.590;2022-09-27T02:53:25;2.57;;;1.60;;
71626;SDS011;59475;52.464;13.590;2022-09-27T03:01:26;2.25;;;1.73;;
71626;SDS011;59475;52.464;13.590;2022-09-27T03:04:04;2.63;;;1.98;;
71626;SDS011;59475;52.464;13.590;2022-09-27T03:06:35;3.37;;;1.77;;
71626;SDS011;59475;52.464;13.590;2022-09-27T03:09:05;2.78;;;1.80;;
71626;SDS011;59475;52.464;13.590;2022-09-27T03:11:38;2.88;;;2.10;;
71626;SDS011;59475;52.464;13.590;2022-09-27T03:14:03;2.30;;;2.10;;
71626;SDS011;59475;52.464;13.590;2022-09-27T03:16:28;3.43;;;2.23;;
71626;SDS011;59475;52.464;13.590;2022-09-27T03:18:54;2.70;;;2.20;;
71626;SDS011;59475;52.464;13.590;2022-09-27T03:21:19;3.00;;;2.20;;
71626;SDS011;59475;52.464;13.590;2022-09-27T03:23:44;2.63;;;2.05;;
71626;SDS011;59475;52.464;13.590;2022-09-27T03:26:10;3.07;;;2.20;;
71626;SDS011;59475;52.464;13.590;2022-09-27T03:28:35;2.63;;;2.00;;
71626;SDS011;59475;52.464;13.590;2022-09-27T03:31:00;4.73;;;2.37;;
71626;SDS011;59475;52.464;13.590;2022-09-27T03:33:26;2.63;;;2.00;;
71626;SDS011;59475;52.464;13.590;2022-09-27T03:35:51;3.37;;;2.00;;
71626;SDS011;59475;52.464;13.590;2022-09-27T03:38:16;4.77;;;2.10;;
71626;SDS011;59475;52.464;13.590;2022-09-27T03:40:42;3.45;;;2.30;;
71626;SDS011;59475;52.464;13.590;2022-09-27T03:43:07;3.80;;;2.33;;
71626;SDS011;59475;52.464;13.590;2022-09-27T03:45:32;2.70;;;1.97;;
71626;SDS011;59475;52.464;13.590;2022-09-27T03:47:57;4.30;;;2.40;;
71626;SDS011;59475;52.464;13.590;2022-09-27T03:50:23;2.83;;;2.40;;
71626;SDS011;59475;52.464;13.590;2022-09-27T03:52:48;3.37;;;2.10;;
71626;SDS011;59475;52.464;13.590;2022-09-27T03:55:13;3.00;;;2.20;;
71626;SDS011;59475;52.464;13.590;2022-09-27T03:57:42;2.90;;;2.43;;
71626;SDS011;59475;52.464;13.590;2022-09-27T04:00:09;5.53;;;2.33;;
71626;SDS011;59475;52.464;13.590;2022-09-27T04:02:34;2.63;;;2.25;;
71626;SDS011;59475;52.464;13.590;2022-09-27T04:05:00;2.67;;;2.13;;
71626;SDS011;59475;52.464;13.590;2022-09-27T04:07:25;2.93;;;2.17;;
71626;SDS011;59475;52.464;13.590;2022-09-27T04:09:50;2.53;;;2.20;;
71626;SDS011;59475;52.464;13.590;2022-09-27T04:12:15;3.10;;;2.30;;
71626;SDS011;59475;52.464;13.590;2022-09-27T04:14:41;4.20;;;2.10;;
71626;SDS011;59475;52.464;13.590;2022-09-27T04:17:06;5.80;;;2.37;;
71626;SDS011;59475;52.464;13.590;2022-09-27T04:19:32;6.43;;;2.87;;
71626;SDS011;59475;52.464;13.590;2022-09-27T04:21:57;3.43;;;2.47;;
71626;SDS011;59475;52.464;13.590;2022-09-27T04:24:22;2.80;;;2.47;;
71626;SDS011;59475;52.464;13.590;2022-09-27T04:26:49;4.55;;;2.42;;
71626;SDS011;59475;52.464;13.590;2022-09-27T04:29:14;4.00;;;2.57;;
71626;SDS011;59475;52.464;13.590;2022-09-27T04:31:40;2.85;;;2.58;;
71626;SDS011;59475;52.464;13.590;2022-09-27T04:34:08;4.57;;;2.72;;
71626;SDS011;59475;52.464;13.590;2022-09-27T04:36:33;3.57;;;2.60;;
71626;SDS011;59475;52.464;13.590;2022-09-27T04:38:59;3.40;;;2.70;;
71626;SDS011;59475;52.464;13.590;2022-09-27T04:41:26;3.53;;;2.47;;
71626;SDS011;59475;52.464;13.590;2022-09-27T04:43:53;4.00;;;2.60;;
71626;SDS011;59475;52.464;13.590;2022-09-27T04:46:19;2.95;;;2.40;;
71626;SDS011;59475;52.464;13.590;2022-09-27T04:48:45;3.47;;;2.30;;
71626;SDS011;59475;52.464;13.590;2022-09-27T04:51:11;3.28;;;2.42;;
71626;SDS011;59475;52.464;13.590;2022-09-27T04:53:36;3.63;;;2.20;;
71626;SDS011;59475;52.464;13.590;2022-09-27T04:56:02;5.25;;;2.90;;
71626;SDS011;59475;52.464;13.590;2022-09-27T04:58:29;3.42;;;2.30;;
71626;SDS011;59475;52.464;13.590;2022-09-27T05:00:55;2.87;;;2.57;;
71626;SDS011;59475;52.464;13.590;2022-09-27T05:03:21;4.70;;;2.60;;
71626;SDS011;59475;52.464;13.590;2022-09-27T05:05:47;3.33;;;2.58;;
71626;SDS011;59475;52.464;13.590;2022-09-27T05:08:12;3.10;;;2.63;;
71626;SDS011;59475;52.464;13.590;2022-09-27T05:10:37;3.20;;;2.42;;
71626;SDS011;59475;52.464;13.590;2022-09-27T05:13:03;2.90;;;2.60;;
71626;SDS011;59475;52.464;13.590;2022-09-27T05:15:28;4.00;;;2.50;;
71626;SDS011;59475;52.464;13.590;2022-09-27T05:17:54;5.27;;;2.67;;
71626;SDS011;59475;52.464;13.590;2022-09-27T05:20:19;3.70;;;2.50;;
71626;SDS011;59475;52.464;13.590;2022-09-27T05:22:45;3.13;;;2.60;;
71626;SDS011;59475;52.464;13.590;2022-09-27T05:25:12;3.20;;;2.20;;
71626;SDS011;59475;52.464;13.590;2022-09-27T05:27:37;3.75;;;2.40;;
71626;SDS011;59475;52.464;13.590;2022-09-27T05:30:03;4.30;;;2.60;;
71626;SDS011;59475;52.464;13.590;2022-09-27T05:32:29;2.53;;;2.00;;
71626;SDS011;59475;52.464;13.590;2022-09-27T05:34:55;3.50;;;2.63;;
71626;SDS011;59475;52.464;13.590;2022-09-27T05:37:20;4.70;;;2.30;;
71626;SDS011;59475;52.464;13.590;2022-09-27T05:39:46;2.60;;;2.40;;
71626;SDS011;59475;52.464;13.590;2022-09-27T05:42:11;2.70;;;2.50;;
71626;SDS011;59475;52.464;13.590;2022-09-27T05:44:39;3.75;;;2.20;;
71626;SDS011;59475;52.464;13.590;2022-09-27T05:47:04;3.00;;;2.50;;
71626;SDS011;59475;52.464;13.590;2022-09-27T05:49:30;6.03;;;2.50;;
71626;SDS011;59475;52.464;13.590;2022-09-27T05:51:57;3.10;;;2.20;;
71626;SDS011;59475;52.464;13.590;2022-09-27T05:54:22;2.75;;;2.50;;
71626;SDS011;59475;52.464;13.590;2022-09-27T05:56:47;3.40;;;2.30;;
71626;SDS011;59475;52.464;13.590;2022-09-27T05:59:13;3.57;;;2.70;;
71626;SDS011;59475;52.464;13.590;2022-09-27T06:01:38;2.73;;;2.53;;
71626;SDS011;59475;52.464;13.590;2022-09-27T06:04:04;3.60;;;2.80;;
71626;SDS011;59475;52.464;13.590;2022-09-27T06:06:29;3.80;;;2.58;;
71626;SDS011;59475;52.464;13.590;2022-09-27T06:08:55;4.75;;;2.90;;
71626;SDS011;59475;52.464;13.590;2022-09-27T06:11:21;5.00;;;3.23;;
71626;SDS011;59475;52.464;13.590;2022-09-27T06:13:47;4.10;;;3.00;;
71626;SDS011;59475;52.464;13.590;2022-09-27T06:16:12;3.27;;;2.93;;
71626;SDS011;59475;52.464;13.590;2022-09-27T06:18:38;3.30;;;2.50;;
71626;SDS011;59475;52.464;13.590;2022-09-27T06:21:04;4.75;;;2.85;;
71626;SDS011;59475;52.464;13.590;2022-09-27T06:23:30;4.63;;;2.87;;
71626;SDS011;59475;52.464;13.590;2022-09-27T06:25:59;4.45;;;3.10;;
71626;SDS011;59475;52.464;13.590;2022-09-27T06:28:29;8.27;;;2.90;;
71626;SDS011;59475;52.464;13.590;2022-09-27T06:30:55;4.32;;;2.90;;
71626;SDS011;59475;52.464;13.590;2022-09-27T06:33:20;3.27;;;2.87;;
71626;SDS011;59475;52.464;13.590;2022-09-27T06:35:46;5.10;;;2.83;;
71626;SDS011;59475;52.464;13.590;2022-09-27T06:38:13;4.17;;;3.23;;
71626;SDS011;59475;52.464;13.590;2022-09-27T06:40:44;4.13;;;3.35;;
71626;SDS011;59475;52.464;13.590;2022-09-27T06:43:10;4.00;;;3.08;;
71626;SDS011;59475;52.464;13.590;2022-09-27T06:45:37;3.37;;;3.00;;
71626;SDS011;59475;52.464;13.590;2022-09-27T06:48:04;5.20;;;3.17;;
71626;SDS011;59475;52.464;13.590;2022-09-27T06:50:31;5.07;;;3.30;;
71626;SDS011;59475;52.464;13.590;2022-09-27T06:52:59;4.00;;;3.28;;
71626;SDS011;59475;52.464;13.590;2022-09-27T06:55:25;3.83;;;3.43;;
71626;SDS011;59475;52.464;13.590;2022-09-27T06:57:54;6.15;;;3.92;;
71626;SDS011;59475;52.464;13.590;2022-09-27T07:00:38;3.88;;;3.03;;
71626;SDS011;59475;52.464;13.590;2022-09-27T07:03:04;4.10;;;2.87;;
71626;SDS011;59475;52.464;13.590;2022-09-27T07:05:30;5.33;;;2.83;;
71626;SDS011;59475;52.464;13.590;2022-09-27T07:07:56;4.10;;;3.23;;
71626;SDS011;59475;52.464;13.590;2022-09-27T07:10:25;4.75;;;3.22;;
71626;SDS011;59475;52.464;13.590;2022-09-27T07:12:53;4.30;;;3.22;;
71626;SDS011;59475;52.464;13.590;2022-09-27T07:15:20;4.83;;;3.53;;
71626;SDS011;59475;52.464;13.590;2022-09-27T07:17:46;6.00;;;3.63;;
71626;SDS011;59475;52.464;13.590;2022-09-27T07:20:19;6.97;;;3.70;;
71626;SDS011;59475;52.464;13.590;2022-09-27T07:22:45;4.77;;;3.23;;
71626;SDS011;59475;52.464;13.590;2022-09-27T07:25:10;5.07;;;3.20;;
71626;SDS011;59475;52.464;13.590;2022-09-27T07:27:36;4.73;;;3.40;;
71626;SDS011;59475;52.464;13.590;2022-09-27T07:30:01;4.73;;;3.73;;
71626;SDS011;59475;52.464;13.590;2022-09-27T07:32:27;4.70;;;3.60;;
71626;SDS011;59475;52.464;13.590;2022-09-27T07:34:52;5.03;;;3.70;;
71626;SDS011;59475;52.464;13.590;2022-09-27T07:37:18;5.57;;;2.95;;
71626;SDS011;59475;52.464;13.590;2022-09-27T07:39:43;12.27;;;4.10;;
71626;SDS011;59475;52.464;13.590;2022-09-27T07:42:09;4.93;;;3.30;;
71626;SDS011;59475;52.464;13.590;2022-09-27T07:44:34;4.87;;;3.20;;
71626;SDS011;59475;52.464;13.590;2022-09-27T07:47:00;4.72;;;3.38;;
71626;SDS011;59475;52.464;13.590;2022-09-27T07:49:25;7.53;;;3.27;;
71626;SDS011;59475;52.464;13.590;2022-09-27T07:51:50;3.23;;;2.93;;
71626;SDS011;59475;52.464;13.590;2022-09-27T07:54:16;4.87;;;2.87;;
71626;SDS011;59475;52.464;13.590;2022-09-27T07:56:43;4.22;;;2.95;;
71626;SDS011;59475;52.464;13.590;2022-09-27T07:59:09;3.80;;;2.70;;
71626;SDS011;59475;52.464;13.590;2022-09-27T08:01:34;3.40;;;3.10;;
71626;SDS011;59475;52.464;13.590;2022-09-27T08:03:59;3.90;;;3.20;;
71626;SDS011;59475;52.464;13.590;2022-09-27T08:06:25;4.70;;;3.10;;
71626;SDS011;59475;52.464;13.590;2022-09-27T08:08:50;7.13;;;3.43;;
71626;SDS011;59475;52.464;13.590;2022-09-27T08:11:16;4.63;;;3.50;;
71626;SDS011;59475;52.464;13.590;2022-09-27T08:13:42;6.68;;;3.55;;
71626;SDS011;59475;52.464;13.590;2022-09-27T08:16:08;5.30;;;3.72;;
71626;SDS011;59475;52.464;13.590;2022-09-27T08:18:35;4.43;;;3.13;;
71626;SDS011;59475;52.464;13.590;2022-09-27T08:21:00;4.77;;;3.60;;
71626;SDS011;59475;52.464;13.590;2022-09-27T08:23:26;4.80;;;4.10;;
71626;SDS011;59475;52.464;13.590;2022-09-27T08:25:52;4.23;;;3.47;;
71626;SDS011;59475;52.464;13.590;2022-09-27T08:28:18;8.85;;;4.65;;
71626;SDS011;59475;52.464;13.590;2022-09-27T08:30:44;4.75;;;3.70;;
71626;SDS011;59475;52.464;13.590;2022-09-27T08:33:10;5.20;;;4.20;;
71626;SDS011;59475;52.464;13.590;2022-09-27T08:35:35;7.17;;;4.60;;
71626;SDS011;59475;52.464;13.590;2022-09-27T08:38:01;4.47;;;4.00;;
71626;SDS011;59475;52.464;13.590;2022-09-27T08:48:57;4.93;;;3.70;;
71626;SDS011;59475;52.464;13.590;2022-09-27T08:51:28;5.17;;;3.60;;
71626;SDS011;59475;52.464;13.590;2022-09-27T08:53:59;7.78;;;4.10;;
71626;SDS011;59475;52.464;13.590;2022-09-27T08:56:30;3.80;;;3.15;;
71626;SDS011;59475;52.464;13.590;2022-09-27T08:59:12;5.78;;;3.50;;
71626;SDS011;59475;52.464;13.590;2022-09-27T09:01:40;4.07;;;3.67;;
71626;SDS011;59475;52.464;13.590;2022-09-27T09:04:06;4.57;;;3.38;;
71626;SDS011;59475;52.464;13.590;2022-09-27T09:09:19;4.18;;;3.78;;
71626;SDS011;59475;52.464;13.590;2022-09-27T09:25:41;5.03;;;3.55;;
71626;SDS011;59475;52.464;13.590;2022-09-27T09:28:14;3.90;;;3.40;;
71626;SDS011;59475;52.464;13.590;2022-09-27T09:33:40;3.90;;;3.30;;
71626;SDS011;59475;52.464;13.590;2022-09-27T09:36:51;3.83;;;3.20;;
71626;SDS011;59475;52.464;13.590;2022-09-27T09:39:03;5.25;;;3.50;;
71626;SDS011;59475;52.464;13.590;2022-09-27T09:41:38;4.23;;;3.50;;
71626;SDS011;59475;52.464;13.590;2022-09-27T09:44:17;3.60;;;3.17;;
71626;SDS011;59475;52.464;13.590;2022-09-27T09:46:49;4.63;;;3.33;;
71626;SDS011;59475;52.464;13.590;2022-09-27T09:49:35;4.30;;;3.13;;
71626;SDS011;59475;52.464;13.590;2022-09-27T09:52:08;4.50;;;3.03;;
71626;SDS011;59475;52.464;13.590;2022-09-27T09:54:37;3.60;;;3.07;;
71626;SDS011;59475;52.464;13.590;2022-09-27T09:59:42;4.10;;;3.55;;
71626;SDS011;59475;52.464;13.590;2022-09-27T10:02:27;4.53;;;3.33;;
71626;SDS011;59475;52.464;13.590;2022-09-27T10:05:00;5.55;;;3.00;;
71626;SDS011;59475;52.464;13.590;2022-09-27T10:07:26;6.43;;;3.23;;
71626;SDS011;59475;52.464;13.590;2022-09-27T10:09:54;3.30;;;2.83;;
71626;SDS011;59475;52.464;13.590;2022-09-27T10:12:22;3.83;;;2.63;;
71626;SDS011;59475;52.464;13.590;2022-09-27T10:14:48;3.37;;;2.50;;
71626;SDS011;59475;52.464;13.590;2022-09-27T10:17:17;3.42;;;3.00;;
71626;SDS011;59475;52.464;13.590;2022-09-27T10:19:47;4.55;;;2.97;;
71626;SDS011;59475;52.464;13.590;2022-09-27T10:22:18;3.75;;;2.88;;
71626;SDS011;59475;52.464;13.590;2022-09-27T10:24:59;5.63;;;2.90;;
71626;SDS011;59475;52.464;13.590;2022-09-27T10:27:39;3.20;;;2.90;;
71626;SDS011;59475;52.464;13.590;2022-09-27T10:30:20;3.90;;;2.90;;
71626;SDS011;59475;52.464;13.590;2022-09-27T10:32:49;3.55;;;2.80;;
71626;SDS011;59475;52.464;13.590;2022-09-27T10:35:18;3.50;;;2.88;;
71626;SDS011;59475;52.464;13.590;2022-09-27T10:38:11;3.10;;;2.57;;
71626;SDS011;59475;52.464;13.590;2022-09-27T10:40:44;4.25;;;2.53;;
71626;SDS011;59475;52.464;13.590;2022-09-27T10:43:27;4.75;;;2.78;;
71626;SDS011;59475;52.464;13.590;2022-09-27T10:46:14;3.40;;;3.10;;
71626;SDS011;59475;52.464;13.590;2022-09-27T10:49:07;3.20;;;2.85;;
71626;SDS011;59475;52.464;13.590;2022-09-27T10:51:39;3.87;;;3.00;;
71626;SDS011;59475;52.464;13.590;2022-09-27T10:54:04;3.15;;;2.80;;
71626;SDS011;59475;52.464;13.590;2022-09-27T10:56:40;3.63;;;2.60;;
71626;SDS011;59475;52.464;13.590;2022-09-27T10:59:06;2.40;;;2.20;;
71626;SDS011;59475;52.464;13.590;2022-09-27T11:01:42;2.30;;;2.10;;
71626;SDS011;59475;52.464;13.590;2022-09-27T11:04:20;3.08;;;2.30;;
71626;SDS011;59475;52.464;13.590;2022-09-27T11:06:50;3.93;;;2.20;;
71626;SDS011;59475;52.464;13.590;2022-09-27T11:09:17;4.50;;;1.90;;
71626;SDS011;59475;52.464;13.590;2022-09-27T11:11:50;3.17;;;1.97;;
71626;SDS011;59475;52.464;13.590;2022-09-27T11:14:29;2.20;;;2.00;;
71626;SDS011;59475;52.464;13.590;2022-09-27T11:17:03;2.72;;;2.17;;
71626;SDS011;59475;52.464;13.590;2022-09-27T11:30:56;3.30;;;1.80;;
71626;SDS011;59475;52.464;13.590;2022-09-27T11:36:10;2.83;;;2.10;;
71626;SDS011;59475;52.464;13.590;2022-09-27T11:39:06;3.10;;;2.10;;
71626;SDS011;59475;52.464;13.590;2022-09-27T11:41:40;3.30;;;2.08;;
71626;SDS011;59475;52.464;13.590;2022-09-27T11:44:17;4.95;;;2.20;;
71626;SDS011;59475;52.464;13.590;2022-09-27T11:49:54;3.00;;;2.05;;
71626;SDS011;59475;52.464;13.590;2022-09-27T11:52:34;5.37;;;2.00;;
71626;SDS011;59475;52.464;13.590;2022-09-27T11:55:18;3.05;;;1.80;;
71626;SDS011;59475;52.464;13.590;2022-09-27T11:57:59;2.85;;;2.03;;
71626;SDS011;59475;52.464;13.590;2022-09-27T12:00:43;3.17;;;1.80;;
71626;SDS011;59475;52.464;13.590;2022-09-27T12:06:14;4.77;;;2.07;;
71626;SDS011;59475;52.464;13.590;2022-09-27T12:16:21;1.40;;;1.10;;
71626;SDS011;59475;52.464;13.590;2022-09-27T12:18:49;1.67;;;1.17;;
71626;SDS011;59475;52.464;13.590;2022-09-27T12:21:16;1.15;;;1.05;;
71626;SDS011;59475;52.464;13.590;2022-09-27T12:23:44;2.20;;;1.33;;
71626;SDS011;59475;52.464;13.590;2022-09-27T12:31:16;1.73;;;0.80;;
71626;SDS011;59475;52.464;13.590;2022-09-27T12:36:38;1.67;;;1.40;;
71626;SDS011;59475;52.464;13.590;2022-09-27T12:42:05;2.42;;;1.35;;
71626;SDS011;59475;52.464;13.590;2022-09-27T12:44:39;4.23;;;1.20;;
71626;SDS011;59475;52.464;13.590;2022-09-27T12:47:11;2.08;;;1.67;;
71626;SDS011;59475;52.464;13.590;2022-09-27T12:52:36;3.50;;;1.40;;
71626;SDS011;59475;52.464;13.590;2022-09-27T13:00:37;4.07;;;2.00;;
71626;SDS011;59475;52.464;13.590;2022-09-27T13:06:26;2.08;;;1.75;;
71626;SDS011;59475;52.464;13.590;2022-09-27T13:14:59;1.92;;;1.73;;
71626;SDS011;59475;52.464;13.590;2022-09-27T13:22:51;2.20;;;1.58;;
71626;SDS011;59475;52.464;13.590;2022-09-27T13:28:30;2.08;;;1.60;;
71626;SDS011;59475;52.464;13.590;2022-09-27T13:30:59;2.50;;;1.40;;
71626;SDS011;59475;52.464;13.590;2022-09-27T13:33:32;3.63;;;1.33;;
71626;SDS011;59475;52.464;13.590;2022-09-27T13:36:44;1.60;;;1.48;;
71626;SDS011;59475;52.464;13.590;2022-09-27T13:47:14;2.38;;;1.50;;
71626;SDS011;59475;52.464;13.590;2022-09-27T13:49:45;1.85;;;1.40;;
71626;SDS011;59475;52.464;13.590;2022-09-27T14:00:21;2.55;;;1.60;;
71626;SDS011;59475;52.464;13.590;2022-09-27T14:03:03;1.88;;;1.63;;
71626;SDS011;59475;52.464;13.590;2022-09-27T14:05:39;1.77;;;1.53;;
71626;SDS011;59475;52.464;13.590;2022-09-27T14:08:53;2.55;;;1.67;;
71626;SDS011;59475;52.464;13.590;2022-09-27T14:11:01;2.85;;;1.88;;
71626;SDS011;59475;52.464;13.590;2022-09-27T14:13:29;2.28;;;1.90;;
71626;SDS011;59475;52.464;13.590;2022-09-27T14:15:57;3.90;;;2.20;;
71626;SDS011;59475;52.464;13.590;2022-09-27T14:18:26;2.40;;;2.07;;
71626;SDS011;59475;52.464;13.590;2022-09-27T14:21:10;4.30;;;2.85;;
71626;SDS011;59475;52.464;13.590;2022-09-27T14:23:42;5.05;;;2.67;;
71626;SDS011;59475;52.464;13.590;2022-09-27T14:26:18;3.43;;;2.67;;
71626;SDS011;59475;52.464;13.590;2022-09-27T14:28:47;6.00;;;4.63;;
71626;SDS011;59475;52.464;13.590;2022-09-27T14:31:13;5.30;;;4.10;;
71626;SDS011;59475;52.464;13.590;2022-09-27T14:33:40;5.03;;;3.67;;
71626;SDS011;59475;52.464;13.590;2022-09-27T14:36:05;6.70;;;2.50;;
71626;SDS011;59475;52.464;13.590;2022-09-27T14:38:58;2.70;;;2.28;;
71626;SDS011;59475;52.464;13.590;2022-09-27T14:41:24;2.87;;;2.17;;
71626;SDS011;59475;52.464;13.590;2022-09-27T14:43:50;2.28;;;1.70;;
71626;SDS011;59475;52.464;13.590;2022-09-27T14:46:27;3.30;;;2.00;;
71626;SDS011;59475;52.464;13.590;2022-09-27T14:48:54;3.65;;;2.10;;
71626;SDS011;59475;52.464;13.590;2022-09-27T14:51:23;2.27;;;2.07;;
71626;SDS011;59475;52.464;13.590;2022-09-27T14:53:53;2.95;;;1.75;;
71626;SDS011;59475;52.464;13.590;2022-09-27T14:56:55;2.17;;;1.52;;
71626;SDS011;59475;52.464;13.590;2022-09-27T14:59:15;2.53;;;1.97;;
71626;SDS011;59475;52.464;13.590;2022-09-27T15:01:52;1.88;;;1.30;;
71626;SDS011;59475;52.464;13.590;2022-09-27T15:04:18;2.45;;;1.55;;
71626;SDS011;59475;52.464;13.590;2022-09-27T15:06:45;2.90;;;1.70;;
71626;SDS011;59475;52.464;13.590;2022-09-27T15:09:12;2.92;;;2.30;;
71626;SDS011;59475;52.464;13.590;2022-09-27T15:11:39;3.10;;;2.13;;
71626;SDS011;59475;52.464;13.590;2022-09-27T15:14:06;2.85;;;2.65;;
71626;SDS011;59475;52.464;13.590;2022-09-27T15:16:37;2.83;;;2.30;;
71626;SDS011;59475;52.464;13.590;2022-09-27T15:19:13;2.20;;;1.80;;
71626;SDS011;59475;52.464;13.590;2022-09-27T15:21:42;2.27;;;1.50;;
71626;SDS011;59475;52.464;13.590;2022-09-27T15:27:00;3.08;;;1.95;;
71626;SDS011;59475;52.464;13.590;2022-09-27T15:29:26;2.30;;;1.73;;
71626;SDS011;59475;52.464;13.590;2022-09-27T15:32:01;2.43;;;2.17;;
71626;SDS011;59475;52.464;13.590;2022-09-27T15:34:29;2.23;;;1.90;;
71626;SDS011;59475;52.464;13.590;2022-09-27T15:36:57;2.63;;;2.15;;
71626;SDS011;59475;52.464;13.590;2022-09-27T15:42:03;2.92;;;2.35;;
71626;SDS011;59475;52.464;13.590;2022-09-27T15:44:36;3.20;;;2.22;;
71626;SDS011;59475;52.464;13.590;2022-09-27T15:52:42;3.85;;;2.58;;
71626;SDS011;59475;52.464;13.590;2022-09-27T15:55:11;4.88;;;2.90;;
71626;SDS011;59475;52.464;13.590;2022-09-27T15:57:38;5.00;;;2.65;;
71626;SDS011;59475;52.464;13.590;2022-09-27T16:00:04;3.90;;;2.40;;
71626;SDS011;59475;52.464;13.590;2022-09-27T16:02:30;4.20;;;1.80;;
71626;SDS011;59475;52.464;13.590;2022-09-27T16:04:55;3.70;;;2.93;;
71626;SDS011;59475;52.464;13.590;2022-09-27T16:07:21;4.20;;;3.43;;
71626;SDS011;59475;52.464;13.590;2022-09-27T16:09:46;3.83;;;2.70;;
71626;SDS011;59475;52.464;13.590;2022-09-27T16:12:14;4.90;;;3.37;;
71626;SDS011;59475;52.464;13.590;2022-09-27T16:14:40;4.45;;;3.00;;
71626;SDS011;59475;52.464;13.590;2022-09-27T16:17:05;6.90;;;3.17;;
71626;SDS011;59475;52.464;13.590;2022-09-27T16:19:30;5.10;;;3.23;;
71626;SDS011;59475;52.464;13.590;2022-09-27T16:21:56;5.80;;;3.80;;
71626;SDS011;59475;52.464;13.590;2022-09-27T16:24:21;5.73;;;3.73;;
71626;SDS011;59475;52.464;13.590;2022-09-27T16:26:49;5.68;;;3.35;;
71626;SDS011;59475;52.464;13.590;2022-09-27T16:29:14;5.30;;;2.90;;
71626;SDS011;59475;52.464;13.590;2022-09-27T16:31:40;4.73;;;2.77;;
71626;SDS011;59475;52.464;13.590;2022-09-27T16:34:09;3.50;;;2.70;;
71626;SDS011;59475;52.464;13.590;2022-09-27T16:36:36;3.67;;;2.33;;
71626;SDS011;59475;52.464;13.590;2022-09-27T16:39:01;3.73;;;2.10;;
71626;SDS011;59475;52.464;13.590;2022-09-27T16:41:29;2.90;;;2.20;;
71626;SDS011;59475;52.464;13.590;2022-09-27T16:43:54;2.65;;;1.95;;
71626;SDS011;59475;52.464;13.590;2022-09-27T16:46:20;3.60;;;2.30;;
71626;SDS011;59475;52.464;13.590;2022-09-27T16:48:45;3.33;;;1.97;;
71626;SDS011;59475;52.464;13.590;2022-09-27T16:53:57;3.05;;;2.30;;
71626;SDS011;59475;52.464;13.590;2022-09-27T16:56:23;3.87;;;2.40;;
71626;SDS011;59475;52.464;13.590;2022-09-27T16:58:48;3.33;;;2.30;;
71626;SDS011;59475;52.464;13.590;2022-09-27T17:01:14;3.97;;;2.70;;
71626;SDS011;59475;52.464;13.590;2022-09-27T17:03:43;4.68;;;3.05;;
71626;SDS011;59475;52.464;13.590;2022-09-27T17:06:13;4.65;;;2.72;;
71626;SDS011;59475;52.464;13.590;2022-09-27T17:08:39;3.87;;;2.40;;
71626;SDS011;59475;52.464;13.590;2022-09-27T17:11:04;4.67;;;3.33;;
71626;SDS011;59475;52.464;13.590;2022-09-27T17:13:30;4.38;;;3.38;;
71626;SDS011;59475;52.464;13.590;2022-09-27T17:15:56;4.43;;;3.40;;
71626;SDS011;59475;52.464;13.590;2022-09-27T17:18:21;3.77;;;3.07;;
71626;SDS011;59475;52.464;13.590;2022-09-27T17:20:46;4.03;;;3.10;;
71626;SDS011;59475;52.464;13.590;2022-09-27T17:23:12;3.73;;;2.80;;
71626;SDS011;59475;52.464;13.590;2022-09-27T17:25:37;5.37;;;4.20;;
71626;SDS011;59475;52.464;13.590;2022-09-27T17:28:02;6.83;;;4.60;;
71626;SDS011;59475;52.464;13.590;2022-09-27T17:30:28;5.77;;;3.97;;